Time;durP1;ratioP1;P1;durP2;ratioP2;P2;SDS_P1;SDS_P2;PMS_P1;PMS_P2;Temp;Humidity;BMP_temperature;BMP_pressure;BME280_temperature;BME280_humidity;BME280_pressure;Samples;Min_cycle;Max_cycle;Signal;HPM_P1;HPM_P2
2022/11/23 00:01:34;;;;;;;14.97;13.57;;;;;;;6.32;100.00;91599.56;5056318;28;20232;-68
2022/11/23 00:04:03;;;;;;;12.30;11.50;;;;;;;6.04;100.00;91560.75;5053272;28;20217;-68
2022/11/23 00:06:29;;;;;;;12.87;11.60;;;;;;;6.32;100.00;91586.63;5051865;28;20226;-68
2022/11/23 00:08:55;;;;;;;12.40;11.53;;;;;;;6.31;100.00;91597.25;5068719;28;20216;-68
2022/11/23 00:11:22;;;;;;;12.93;12.03;;;;;;;6.18;100.00;91583.16;5053719;28;20305;-67
2022/11/23 00:13:48;;;;;;;11.17;10.33;;;;;;;6.00;100.00;91588.28;5053157;28;20193;-68
2022/11/23 00:16:15;;;;;;;11.00;10.37;;;;;;;6.15;100.00;91588.88;5034334;28;20218;-68
2022/11/23 00:18:41;;;;;;;12.63;11.73;;;;;;;6.07;100.00;91586.91;5052321;28;20219;-68
2022/11/23 00:21:15;;;;;;;12.07;11.13;;;;;;;6.54;100.00;91601.63;5051431;28;20263;-68
2022/11/23 00:23:41;;;;;;;11.23;10.53;;;;;;;6.49;100.00;91599.09;5055859;28;20239;-68
2022/11/23 00:26:06;;;;;;;11.30;10.57;;;;;;;6.45;100.00;91582.56;5051794;28;20233;-66
2022/11/23 00:28:33;;;;;;;11.93;11.17;;;;;;;6.51;100.00;91571.09;5051983;28;20216;-68
2022/11/23 00:30:59;;;;;;;13.53;12.53;;;;;;;6.52;100.00;91588.97;5051131;28;20298;-68
2022/11/23 00:33:24;;;;;;;13.50;12.37;;;;;;;6.51;100.00;91600.38;5051747;28;20194;-68
2022/11/23 00:36:04;;;;;;;13.50;12.63;;;;;;;6.60;100.00;91607.56;5051757;28;20233;-66
2022/11/23 00:38:30;;;;;;;14.20;13.17;;;;;;;6.62;100.00;91597.66;5054784;28;20191;-68
2022/11/23 00:41:00;;;;;;;14.70;13.63;;;;;;;6.66;100.00;91589.06;5051914;28;20218;-68
2022/11/23 00:43:26;;;;;;;13.37;12.43;;;;;;;6.48;100.00;91571.66;5051699;28;20222;-68
2022/11/23 00:46:05;;;;;;;13.27;12.37;;;;;;;6.68;100.00;91599.91;5051768;28;20214;-68
2022/11/23 00:48:31;;;;;;;11.27;10.67;;;;;;;6.71;100.00;91601.94;5062411;28;20205;-68
2022/11/23 00:50:56;;;;;;;12.50;11.73;;;;;;;6.71;100.00;91593.41;5051486;28;20337;-68
2022/11/23 00:53:21;;;;;;;14.20;13.30;;;;;;;6.61;100.00;91599.50;5051794;28;20192;-67
2022/11/23 00:55:54;;;;;;;15.10;13.97;;;;;;;6.58;100.00;91602.66;5070749;28;20231;-68
2022/11/23 00:58:19;;;;;;;15.37;14.37;;;;;;;6.63;100.00;91579.22;5057417;28;20217;-68
2022/11/23 01:00:45;;;;;;;13.53;12.67;;;;;;;6.58;100.00;91561.16;5059605;28;20222;-68
2022/11/23 01:03:10;;;;;;;12.80;12.00;;;;;;;6.76;100.00;91568.16;5048573;28;20184;-68
2022/11/23 01:05:36;;;;;;;11.27;10.37;;;;;;;6.73;100.00;91547.97;5051078;28;20252;-69
2022/11/23 01:08:02;;;;;;;12.57;11.67;;;;;;;6.85;100.00;91576.84;5058092;28;20923;-68
2022/11/23 01:10:29;;;;;;;11.97;11.27;;;;;;;6.96;100.00;91588.63;5059450;28;20222;-67
2022/11/23 01:12:54;;;;;;;12.50;11.77;;;;;;;6.90;100.00;91579.38;5052343;28;20178;-67
2022/11/23 01:15:20;;;;;;;11.43;10.53;;;;;;;6.83;100.00;91578.97;5061879;28;20286;-68
2022/11/23 01:17:45;;;;;;;11.93;11.10;;;;;;;6.88;100.00;91580.72;5060656;28;20189;-68
2022/11/23 01:20:10;;;;;;;12.07;11.33;;;;;;;6.83;100.00;91575.59;5050731;28;20249;-68
2022/11/23 01:22:36;;;;;;;12.37;11.67;;;;;;;6.79;100.00;91567.59;5051512;28;20262;-69
2022/11/23 01:25:01;;;;;;;11.40;10.87;;;;;;;6.82;100.00;91571.47;5050472;28;20238;-68
2022/11/23 01:27:27;;;;;;;12.17;11.33;;;;;;;6.53;100.00;91524.94;5050746;28;20182;-68
2022/11/23 01:29:52;;;;;;;11.70;11.00;;;;;;;6.76;100.00;91557.78;5033407;28;20228;-68
2022/11/23 01:32:17;;;;;;;11.20;10.60;;;;;;;6.77;100.00;91571.53;5049927;28;20194;-68
2022/11/23 01:34:43;;;;;;;11.83;10.87;;;;;;;6.76;100.00;91572.56;5050191;28;20229;-68
2022/11/23 01:37:08;;;;;;;11.00;10.30;;;;;;;6.52;100.00;91547.47;5050554;28;20236;-68
2022/11/23 01:39:33;;;;;;;10.60;10.10;;;;;;;6.78;100.00;91550.50;5050634;28;20190;-68
2022/11/23 01:41:59;;;;;;;12.80;12.20;;;;;;;6.73;100.00;91573.13;5049688;28;20237;-68
2022/11/23 01:44:26;;;;;;;11.70;10.93;;;;;;;6.71;100.00;91580.44;5060750;28;20220;-69
2022/11/23 01:46:52;;;;;;;11.33;10.47;;;;;;;6.65;100.00;91561.56;5052561;28;20951;-68
2022/11/23 01:49:18;;;;;;;11.77;11.17;;;;;;;6.77;100.00;91564.50;5049675;28;20190;-67
2022/11/23 01:51:48;;;;;;;11.70;11.00;;;;;;;6.84;100.00;91582.31;5052631;28;20226;-68
2022/11/23 01:54:15;;;;;;;12.13;11.43;;;;;;;6.76;100.00;91583.72;5059261;28;20193;-68
2022/11/23 01:56:45;;;;;;;12.03;11.33;;;;;;;6.92;100.00;91581.69;5048903;28;20221;-68
2022/11/23 01:59:15;;;;;;;12.40;11.57;;;;;;;6.86;100.00;91593.19;5053707;28;20189;-68
2022/11/23 02:01:42;;;;;;;12.33;11.53;;;;;;;7.06;100.00;91587.72;5050001;28;20218;-68
2022/11/23 02:04:12;;;;;;;12.33;11.63;;;;;;;6.89;100.00;91577.84;5050849;28;20198;-68
2022/11/23 02:06:38;;;;;;;12.10;10.93;;;;;;;7.01;100.00;91567.81;5052059;28;20329;-68
2022/11/23 02:09:04;;;;;;;11.87;11.00;;;;;;;7.08;100.00;91560.44;5050490;28;20186;-68
2022/11/23 02:11:29;;;;;;;11.97;10.77;;;;;;;6.98;100.00;91557.22;5049787;28;20226;-68
2022/11/23 02:13:55;;;;;;;11.93;11.23;;;;;;;7.03;100.00;91557.94;5050427;28;20186;-68
2022/11/23 02:16:21;;;;;;;13.00;12.07;;;;;;;6.99;100.00;91553.59;5062061;28;20229;-68
2022/11/23 02:18:50;;;;;;;11.60;10.70;;;;;;;6.99;100.00;91562.13;5049948;28;20178;-67
2022/11/23 02:21:15;;;;;;;13.33;12.33;;;;;;;6.74;100.00;91533.94;5047710;28;20230;-68
2022/11/23 02:24:04;;;;;;;12.00;11.23;;;;;;;6.95;100.00;91540.41;5050813;28;20249;-68
2022/11/23 02:26:32;;;;;;;11.70;11.00;;;;;;;7.00;100.00;91537.75;5048864;28;20249;-68
2022/11/23 02:29:01;;;;;;;11.23;10.63;;;;;;;7.07;100.00;91553.72;5049660;28;20198;-68
2022/11/23 02:31:26;;;;;;;12.27;11.57;;;;;;;6.84;100.00;91536.41;5049204;28;20209;-68
2022/11/23 02:33:52;;;;;;;11.73;10.93;;;;;;;6.94;100.00;91512.91;5050894;28;20221;-68
2022/11/23 02:36:40;;;;;;;12.80;11.90;;;;;;;6.90;100.00;91511.16;5048970;28;20233;-68
2022/11/23 02:39:36;;;;;;;11.87;10.97;;;;;;;7.01;100.00;91497.75;5047558;28;20229;-68
2022/11/23 02:42:02;;;;;;;11.63;10.70;;;;;;;6.97;100.00;91502.00;5048963;28;20313;-68
2022/11/23 02:45:03;;;;;;;11.83;10.93;;;;;;;6.73;100.00;91505.72;5051050;28;20186;-68
2022/11/23 02:47:28;;;;;;;10.97;10.13;;;;;;;6.79;100.00;91500.16;5049240;28;20229;-68
2022/11/23 02:49:54;;;;;;;11.50;10.80;;;;;;;6.77;100.00;91506.69;5051386;28;20293;-69
2022/11/23 02:52:19;;;;;;;11.23;10.50;;;;;;;6.77;100.00;91497.09;5049200;28;20196;-69
2022/11/23 02:54:44;;;;;;;11.00;10.47;;;;;;;6.82;100.00;91498.84;5051634;28;20198;-69
2022/11/23 02:57:10;;;;;;;12.53;11.73;;;;;;;6.76;100.00;91494.78;5050922;28;20248;-69
2022/11/23 02:59:35;;;;;;;12.30;11.53;;;;;;;6.75;100.00;91481.06;5053117;28;20194;-69
2022/11/23 03:02:03;;;;;;;11.47;10.57;;;;;;;6.91;100.00;91499.75;5054192;28;20182;-68
2022/11/23 03:04:28;;;;;;;11.77;10.87;;;;;;;7.04;100.00;91476.44;5066915;28;20192;-68
2022/11/23 03:06:54;;;;;;;10.97;10.37;;;;;;;6.91;100.00;91495.31;5061242;28;20249;-68
2022/11/23 03:09:20;;;;;;;12.23;11.53;;;;;;;6.80;100.00;91475.78;5053687;28;20189;-68
2022/11/23 03:11:45;;;;;;;11.97;11.23;;;;;;;6.88;100.00;91464.75;5052627;28;20225;-67
2022/11/23 03:14:10;;;;;;;12.37;11.63;;;;;;;6.79;100.00;91455.31;5053978;28;20245;-67
2022/11/23 03:16:36;;;;;;;12.13;11.37;;;;;;;6.85;100.00;91478.28;5053198;28;20217;-68
2022/11/23 03:19:01;;;;;;;12.07;11.47;;;;;;;6.80;100.00;91462.81;5053260;28;20184;-68
2022/11/23 03:21:27;;;;;;;11.60;10.80;;;;;;;6.93;100.00;91480.25;5053353;28;20273;-68
2022/11/23 03:23:54;;;;;;;11.80;11.00;;;;;;;6.78;100.00;91467.53;5053366;28;20165;-69
2022/11/23 03:26:19;;;;;;;12.20;11.57;;;;;;;6.99;100.00;91481.69;5052429;28;20226;-68
2022/11/23 03:28:45;;;;;;;11.50;10.70;;;;;;;6.60;100.00;91439.03;5065356;28;20190;-68
2022/11/23 03:31:10;;;;;;;11.50;10.87;;;;;;;6.95;100.00;91488.53;5053023;28;20237;-68
2022/11/23 03:33:35;;;;;;;12.13;11.23;;;;;;;6.81;100.00;91479.91;5054670;28;20190;-69
2022/11/23 03:36:01;;;;;;;11.87;11.07;;;;;;;6.81;100.00;91461.75;5053004;28;20250;-68
2022/11/23 03:38:26;;;;;;;12.47;11.70;;;;;;;6.87;100.00;91463.22;5052601;28;20246;-68
2022/11/23 03:40:52;;;;;;;12.60;11.77;;;;;;;6.76;100.00;91469.63;5052603;28;20230;-68
2022/11/23 03:43:18;;;;;;;12.20;11.50;;;;;;;6.94;100.00;91460.25;5047128;28;20225;-68
2022/11/23 03:45:44;;;;;;;12.30;11.57;;;;;;;6.78;100.00;91449.38;5063772;28;20230;-68
2022/11/23 03:48:10;;;;;;;13.00;12.13;;;;;;;6.75;100.00;91462.91;5053776;28;20204;-68
2022/11/23 03:50:35;;;;;;;12.23;11.47;;;;;;;6.73;100.00;91449.44;5052480;28;20293;-68
2022/11/23 03:53:00;;;;;;;12.07;11.37;;;;;;;6.66;100.00;91454.22;5050893;28;20190;-67
2022/11/23 03:55:26;;;;;;;12.37;11.40;;;;;;;6.69;100.00;91440.69;5052093;28;20223;-68
2022/11/23 03:57:53;;;;;;;12.57;11.83;;;;;;;6.45;100.00;91429.63;5054778;28;20202;-68
2022/11/23 04:00:19;;;;;;;13.30;12.37;;;;;;;6.53;100.00;91439.38;5070005;28;20221;-68
2022/11/23 04:02:44;;;;;;;12.37;11.50;;;;;;;6.38;100.00;91411.09;5053550;28;20182;-68
2022/11/23 04:05:09;;;;;;;13.57;12.67;;;;;;;6.59;100.00;91438.25;5051112;28;20278;-68
2022/11/23 04:07:35;;;;;;;12.63;11.90;;;;;;;6.54;100.00;91430.53;5049520;28;20194;-68
2022/11/23 04:10:00;;;;;;;12.37;11.47;;;;;;;6.44;100.00;91435.88;5061313;28;20236;-66
2022/11/23 04:12:26;;;;;;;13.13;12.17;;;;;;;5.95;100.00;91391.50;5057406;28;20174;-65
2022/11/23 04:14:51;;;;;;;15.13;13.77;;;;;;;6.10;100.00;91440.53;5061852;28;20174;-66
2022/11/23 04:17:17;;;;;;;13.60;12.63;;;;;;;6.62;100.00;91436.91;5054486;28;20195;-67
2022/11/23 04:19:42;;;;;;;13.43;12.43;;;;;;;6.70;100.00;91444.03;5061575;28;20201;-65
2022/11/23 04:22:08;;;;;;;14.30;13.10;;;;;;;6.65;100.00;91447.47;5066264;28;20182;-66
2022/11/23 04:24:33;;;;;;;18.10;16.20;;;;;;;6.41;100.00;91457.94;5061107;28;20189;-69
2022/11/23 04:26:59;;;;;;;13.37;12.33;;;;;;;6.61;100.00;91443.94;5054796;28;20225;-68
2022/11/23 04:29:24;;;;;;;12.97;12.17;;;;;;;6.52;100.00;91443.78;5044593;28;20181;-68
2022/11/23 04:31:49;;;;;;;13.23;12.43;;;;;;;6.61;100.00;91441.34;5052179;28;20246;-68
2022/11/23 04:34:15;;;;;;;12.10;11.20;;;;;;;6.67;100.00;91435.00;5049511;28;20182;-68
2022/11/23 04:36:40;;;;;;;12.57;11.77;;;;;;;6.72;100.00;91440.13;5050250;28;20230;-68
2022/11/23 04:39:06;;;;;;;13.30;12.47;;;;;;;6.69;100.00;91445.88;5042902;28;20185;-68
2022/11/23 04:41:31;;;;;;;12.43;11.67;;;;;;;6.81;100.00;91441.00;5053606;28;20222;-68
2022/11/23 04:43:57;;;;;;;13.43;12.53;;;;;;;6.82;100.00;91452.16;5056084;28;20208;-68
2022/11/23 04:46:22;;;;;;;12.60;11.70;;;;;;;6.72;100.00;91465.28;5051399;28;20225;-67
2022/11/23 04:48:47;;;;;;;13.30;12.37;;;;;;;6.31;100.00;91452.13;5049240;28;20186;-68
2022/11/23 04:51:13;;;;;;;13.43;12.63;;;;;;;6.52;100.00;91479.31;5055582;28;20293;-67
2022/11/23 04:53:39;;;;;;;14.23;13.33;;;;;;;6.41;100.00;91475.34;5040339;28;20198;-66
2022/11/23 04:56:05;;;;;;;14.67;13.67;;;;;;;6.43;100.00;91481.75;5050540;28;20218;-68
2022/11/23 04:58:30;;;;;;;15.30;14.13;;;;;;;6.63;100.00;91485.88;5049337;28;20238;-68
2022/11/23 05:00:57;;;;;;;14.63;13.53;;;;;;;6.71;100.00;91487.09;5053784;28;20221;-67
2022/11/23 05:03:22;;;;;;;14.50;13.50;;;;;;;6.43;100.00;91486.16;5051505;28;20175;-69
2022/11/23 05:05:47;;;;;;;16.10;14.70;;;;;;;6.54;100.00;91501.31;5050077;28;21142;-72
2022/11/23 05:08:13;;;;;;;17.37;15.87;;;;;;;6.56;100.00;91506.22;5033605;28;20182;-70
2022/11/23 05:10:38;;;;;;;17.60;15.87;;;;;;;6.64;100.00;91510.00;5050468;28;20237;-68
2022/11/23 05:13:04;;;;;;;16.67;15.20;;;;;;;6.52;100.00;91494.88;5051664;28;20258;-68
2022/11/23 05:15:29;;;;;;;17.33;15.73;;;;;;;6.44;100.00;91485.13;5051112;28;20235;-67
2022/11/23 05:18:05;;;;;;;17.43;15.80;;;;;;;6.57;100.00;91497.38;5051006;28;20177;-69
2022/11/23 05:20:31;;;;;;;18.03;16.33;;;;;;;6.63;100.00;91501.44;5036716;28;20226;-67
2022/11/23 05:22:57;;;;;;;17.87;16.07;;;;;;;6.75;100.00;91494.03;5051599;28;20970;-68
2022/11/23 05:25:23;;;;;;;18.83;17.13;;;;;;;6.74;100.00;91491.72;5051928;28;20228;-70
2022/11/23 05:27:49;;;;;;;19.43;17.57;;;;;;;6.55;100.00;91478.75;5051505;28;20186;-70
2022/11/23 05:30:14;;;;;;;21.40;19.37;;;;;;;6.29;100.00;91455.00;5053813;28;20232;-71
2022/11/23 05:32:40;;;;;;;21.73;19.43;;;;;;;6.55;100.00;91483.94;5052405;28;20204;-69
2022/11/23 05:35:06;;;;;;;20.97;18.97;;;;;;;6.57;100.00;91485.19;5050316;28;20222;-70
2022/11/23 05:37:33;;;;;;;23.30;21.00;;;;;;;6.73;100.00;91488.34;5055153;28;20186;-70
2022/11/23 05:39:58;;;;;;;48.40;43.93;;;;;;;6.84;100.00;91494.91;5049439;28;20233;-69
2022/11/23 05:42:24;;;;;;;31.17;25.20;;;;;;;6.74;100.00;91465.78;5050645;28;20225;-70
2022/11/23 05:44:49;;;;;;;38.30;28.43;;;;;;;6.71;100.00;91459.31;5053858;28;20185;-70
2022/11/23 05:47:15;;;;;;;31.43;24.43;;;;;;;6.72;100.00;91462.69;5052246;28;20269;-70
2022/11/23 05:49:40;;;;;;;25.40;22.70;;;;;;;6.86;100.00;91485.03;5049020;28;20209;-70
2022/11/23 05:52:05;;;;;;;28.17;20.97;;;;;;;6.92;100.00;91473.53;5054073;28;20249;-69
2022/11/23 05:54:31;;;;;;;30.33;21.67;;;;;;;6.58;100.00;91478.19;5031984;28;20182;-69
2022/11/23 05:56:56;;;;;;;24.03;21.30;;;;;;;6.64;100.00;91492.63;5048775;28;20218;-70
2022/11/23 05:59:21;;;;;;;23.20;20.80;;;;;;;6.76;100.00;91480.00;5049624;28;20181;-69
2022/11/23 06:01:47;;;;;;;23.90;21.33;;;;;;;6.96;100.00;91471.88;5040546;28;20248;-70
2022/11/23 06:04:12;;;;;;;22.27;20.17;;;;;;;6.96;100.00;91479.66;5049389;28;20253;-69
2022/11/23 06:06:38;;;;;;;31.93;23.60;;;;;;;6.88;100.00;91485.50;5049606;28;20247;-71
2022/11/23 06:09:03;;;;;;;22.73;20.43;;;;;;;6.99;100.00;91481.69;5051727;28;20217;-70
2022/11/23 06:11:30;;;;;;;25.50;22.90;;;;;;;6.83;100.00;91484.81;5054025;28;20210;-70
2022/11/23 06:13:55;;;;;;;29.93;23.17;;;;;;;6.71;100.00;91497.47;5054096;28;20239;-70
2022/11/23 06:16:20;;;;;;;30.33;25.63;;;;;;;7.00;100.00;91485.84;5052501;28;20269;-70
2022/11/23 06:18:46;;;;;;;33.77;24.87;;;;;;;7.22;100.00;91493.03;5062272;28;20182;-68
2022/11/23 06:21:11;;;;;;;42.53;29.50;;;;;;;6.74;100.00;91517.66;5053388;28;20289;-70
2022/11/23 06:23:36;;;;;;;37.57;26.40;;;;;;;6.89;100.00;91481.88;5049386;28;20198;-68
2022/11/23 06:26:02;;;;;;;35.37;26.33;;;;;;;7.30;100.00;91500.16;5048968;28;20297;-70
2022/11/23 06:28:28;;;;;;;57.17;35.50;;;;;;;7.27;100.00;91514.47;5049117;28;20181;-70
2022/11/23 06:30:54;;;;;;;34.40;26.10;;;;;;;7.29;100.00;91512.34;5047654;28;20218;-70
2022/11/23 06:33:19;;;;;;;41.60;27.13;;;;;;;7.50;100.00;91503.16;5049852;28;20185;-69
2022/11/23 06:35:52;;;;;;;32.17;24.30;;;;;;;7.50;100.00;91495.38;5050064;28;20247;-70
2022/11/23 06:38:18;;;;;;;33.13;25.63;;;;;;;7.52;100.00;91495.06;5048827;28;20243;-69
2022/11/23 06:40:43;;;;;;;73.93;47.47;;;;;;;7.65;100.00;91507.31;5048792;28;20252;-69
2022/11/23 06:43:09;;;;;;;21.77;19.60;;;;;;;7.87;100.00;91491.84;5042203;28;20253;-68
2022/11/23 06:45:34;;;;;;;24.63;22.00;;;;;;;7.80;100.00;91507.03;5048855;28;20493;-67
2022/11/23 06:47:59;;;;;;;26.17;21.83;;;;;;;7.57;100.00;91511.34;5048279;28;20182;-68
2022/11/23 06:50:25;;;;;;;23.70;20.93;;;;;;;7.56;100.00;91494.25;5048027;28;20871;-69
2022/11/23 06:52:57;;;;;;;22.50;20.20;;;;;;;7.79;100.00;91503.69;5048618;28;20217;-68
2022/11/23 06:55:24;;;;;;;21.17;19.37;;;;;;;7.86;100.00;91501.47;5046869;28;20257;-68
2022/11/23 06:57:49;;;;;;;22.17;19.77;;;;;;;7.69;100.00;91483.06;5045750;28;20261;-68
2022/11/23 07:00:15;;;;;;;20.00;18.03;;;;;;;8.09;100.00;91513.47;5047624;28;20260;-66
2022/11/23 07:02:40;;;;;;;23.30;20.93;;;;;;;8.41;100.00;91504.03;5030306;28;20190;-67
2022/11/23 07:05:06;;;;;;;30.13;24.67;;;;;;;8.22;100.00;91511.94;5047436;28;20295;-67
2022/11/23 07:07:32;;;;;;;20.33;18.13;;;;;;;8.13;100.00;91504.06;5047747;28;20205;-66
2022/11/23 07:09:58;;;;;;;18.53;16.77;;;;;;;8.31;100.00;91504.25;5046910;28;20233;-66
2022/11/23 07:12:23;;;;;;;17.30;15.97;;;;;;;8.60;100.00;91497.66;5051084;28;20182;-68
2022/11/23 07:14:48;;;;;;;18.50;16.80;;;;;;;8.69;100.00;91508.91;5047746;28;20198;-66
2022/11/23 07:17:14;;;;;;;20.83;18.87;;;;;;;8.92;100.00;91507.88;5047924;28;20205;-72
2022/11/23 07:19:39;;;;;;;20.07;18.00;;;;;;;9.13;100.00;91516.75;5047089;28;20217;-72
2022/11/23 07:22:04;;;;;;;16.13;14.63;;;;;;;9.21;100.00;91500.41;5049903;28;20206;-68
2022/11/23 07:24:30;;;;;;;18.47;16.67;;;;;;;9.08;100.00;91505.69;5048723;28;20248;-67
2022/11/23 07:26:55;;;;;;;19.50;17.67;;;;;;;9.01;100.00;91513.16;5050220;28;20229;-70
2022/11/23 07:29:20;;;;;;;18.90;17.07;;;;;;;8.92;100.00;91533.88;5050796;28;20186;-69
2022/11/23 07:31:46;;;;;;;19.70;17.70;;;;;;;9.04;100.00;91526.31;5049575;28;20214;-70
2022/11/23 07:34:11;;;;;;;20.77;18.73;;;;;;;9.05;100.00;91503.66;5049270;28;20186;-71
2022/11/23 07:36:37;;;;;;;19.93;17.93;;;;;;;8.62;100.00;91529.34;5043884;28;20226;-71
2022/11/23 07:39:02;;;;;;;21.50;19.27;;;;;;;8.80;100.00;91536.25;5052427;28;20193;-71
2022/11/23 07:41:28;;;;;;;21.60;19.13;;;;;;;9.19;100.00;91533.03;5046589;28;20297;-72
2022/11/23 07:43:53;;;;;;;21.53;19.33;;;;;;;8.86;100.00;91531.69;5053010;28;20218;-70
2022/11/23 07:46:19;;;;;;;22.97;20.77;;;;;;;8.28;100.00;91521.19;5052453;28;20229;-71
2022/11/23 07:48:44;;;;;;;23.03;20.20;;;;;;;8.95;100.00;91515.06;5052520;28;20182;-71
2022/11/23 07:51:10;;;;;;;23.10;20.70;;;;;;;8.90;100.00;91514.44;5055013;28;20209;-71
2022/11/23 07:53:35;;;;;;;21.60;18.87;;;;;;;8.59;100.00;91526.56;5054286;28;20190;-71
2022/11/23 07:56:00;;;;;;;23.60;20.50;;;;;;;8.73;100.00;91519.50;5051797;28;20221;-71
2022/11/23 07:58:26;;;;;;;30.60;24.57;;;;;;;8.74;100.00;91521.03;5055967;28;20233;-71
2022/11/23 08:00:52;;;;;;;23.10;20.73;;;;;;;8.79;100.00;91508.69;5051120;28;20225;-71
2022/11/23 08:03:18;;;;;;;24.40;21.87;;;;;;;8.28;100.00;91523.06;5052044;28;20193;-71
2022/11/23 08:05:43;;;;;;;23.83;21.33;;;;;;;8.35;100.00;91515.59;5064377;28;20229;-70
2022/11/23 08:08:08;;;;;;;27.90;20.10;;;;;;;8.54;100.00;91522.25;5054343;28;20193;-71
2022/11/23 08:10:34;;;;;;;23.83;20.67;;;;;;;8.47;100.00;91519.25;5050249;28;20214;-71
2022/11/23 08:13:02;;;;;;;23.80;21.40;;;;;;;8.62;100.00;91521.56;5060218;28;20185;-70
2022/11/23 08:15:27;;;;;;;25.43;21.77;;;;;;;8.64;100.00;91518.66;5056800;28;20252;-71
2022/11/23 08:17:54;;;;;;;25.20;21.53;;;;;;;8.50;100.00;91517.91;5059877;28;20200;-71
2022/11/23 08:20:20;;;;;;;34.13;26.33;;;;;;;8.38;100.00;91504.63;5056399;28;20293;-71
2022/11/23 08:22:45;;;;;;;24.87;22.27;;;;;;;8.39;100.00;91501.72;5043376;28;20201;-70
2022/11/23 08:25:10;;;;;;;23.50;21.03;;;;;;;8.19;100.00;91455.34;5051096;28;20250;-71
2022/11/23 08:27:36;;;;;;;28.93;21.47;;;;;;;8.20;100.00;91483.63;5052223;28;20193;-72
2022/11/23 08:30:01;;;;;;;26.00;21.77;;;;;;;7.80;100.00;91455.06;5056758;28;20245;-71
2022/11/23 08:32:26;;;;;;;27.30;24.37;;;;;;;7.92;100.00;91476.91;5056598;28;20182;-70
2022/11/23 08:34:52;;;;;;;28.90;23.80;;;;;;;8.04;100.00;91505.03;5051612;28;20244;-70
2022/11/23 08:37:17;;;;;;;26.07;23.03;;;;;;;8.26;100.00;91501.75;5054152;28;20197;-71
2022/11/23 08:39:42;;;;;;;25.30;22.30;;;;;;;8.38;100.00;91500.22;5037302;28;20186;-71
2022/11/23 08:42:09;;;;;;;23.60;20.73;;;;;;;8.38;100.00;91502.03;5055124;28;20234;-71
2022/11/23 08:44:34;;;;;;;23.63;21.10;;;;;;;8.32;100.00;91514.38;5050676;28;20189;-71
2022/11/23 08:46:59;;;;;;;22.50;20.17;;;;;;;8.48;100.00;91538.25;5059914;28;20213;-71
2022/11/23 08:49:25;;;;;;;20.83;18.57;;;;;;;8.28;100.00;91468.44;5056811;28;20226;-71
2022/11/23 08:51:50;;;;;;;22.80;17.73;;;;;;;8.99;100.00;91525.69;5048080;28;20239;-71
2022/11/23 08:54:15;;;;;;;18.93;17.17;;;;;;;8.61;100.00;91519.22;5052034;28;20187;-71
2022/11/23 08:56:41;;;;;;;19.83;17.73;;;;;;;8.82;100.00;91535.94;5060780;28;20221;-71
2022/11/23 08:59:07;;;;;;;21.37;19.03;;;;;;;8.94;100.00;91531.00;5051231;28;20197;-71
2022/11/23 09:01:32;;;;;;;23.33;19.23;;;;;;;9.20;100.00;91535.34;5050323;28;20229;-71
2022/11/23 09:03:58;;;;;;;21.53;19.27;;;;;;;9.14;100.00;91538.34;5051793;28;20226;-71
2022/11/23 09:06:27;;;;;;;22.03;20.03;;;;;;;9.16;100.00;91523.97;5051036;28;20224;-71
2022/11/23 09:08:54;;;;;;;24.67;21.97;;;;;;;8.63;100.00;91509.31;5051391;28;20186;-71
2022/11/23 09:11:19;;;;;;;23.43;21.03;;;;;;;8.81;100.00;91516.22;5055239;28;20237;-71
2022/11/23 09:13:44;;;;;;;24.17;21.67;;;;;;;8.81;100.00;91518.81;5051460;28;20177;-70
2022/11/23 09:16:10;;;;;;;24.30;21.77;;;;;;;9.28;100.00;91523.44;5052350;28;20233;-70
2022/11/23 09:18:35;;;;;;;24.83;21.57;;;;;;;9.40;100.00;91521.06;5051417;28;20178;-71
2022/11/23 09:21:03;;;;;;;29.33;21.30;;;;;;;9.44;100.00;91517.56;5062759;28;20230;-71
2022/11/23 09:23:28;;;;;;;27.83;23.00;;;;;;;9.52;100.00;91500.47;5033887;28;21072;-71
2022/11/23 09:25:57;;;;;;;27.33;24.33;;;;;;;9.41;100.00;91501.78;5053204;28;20237;-71
2022/11/23 09:28:23;;;;;;;28.57;23.10;;;;;;;8.91;100.00;91508.16;5068070;28;20276;-71
2022/11/23 09:30:49;;;;;;;28.37;22.90;;;;;;;8.75;100.00;91519.97;5048244;28;20221;-71
2022/11/23 09:33:15;;;;;;;26.80;23.87;;;;;;;8.89;100.00;91513.66;5046784;28;20186;-70
2022/11/23 09:35:40;;;;;;;25.97;23.13;;;;;;;8.98;100.00;91493.66;5050477;28;20228;-70
2022/11/23 09:38:05;;;;;;;26.70;23.83;;;;;;;8.90;100.00;91478.00;5051723;28;20177;-71
2022/11/23 09:40:34;;;;;;;30.40;23.13;;;;;;;8.74;100.00;91492.41;5061652;28;20236;-71
2022/11/23 09:43:19;;;;;;;27.10;22.27;;;;;;;8.64;100.00;91495.25;5052181;28;20236;-70
2022/11/23 09:45:53;;;;;;;29.67;24.63;;;;;;;8.91;100.00;91493.31;5054391;28;20293;-71
2022/11/23 09:48:39;;;;;;;25.73;22.77;;;;;;;8.97;100.00;91507.75;5050219;28;20186;-71
2022/11/23 09:51:14;;;;;;;24.73;21.53;;;;;;;8.81;100.00;91503.19;5052021;28;20237;-71
2022/11/23 09:53:55;;;;;;;28.60;22.70;;;;;;;8.65;100.00;91520.19;5042033;28;20324;-71
2022/11/23 09:56:33;;;;;;;26.63;21.60;;;;;;;8.61;100.00;91508.81;5029937;28;20230;-71
2022/11/23 09:59:04;;;;;;;25.13;22.20;;;;;;;8.63;100.00;91485.88;5050473;28;20182;-70
2022/11/23 10:01:30;;;;;;;23.03;20.67;;;;;;;8.65;100.00;91504.59;5048832;28;20230;-71
2022/11/23 10:03:56;;;;;;;24.37;21.57;;;;;;;8.46;100.00;91501.34;5049860;28;20197;-72
2022/11/23 10:06:30;;;;;;;27.07;20.63;;;;;;;8.44;100.00;91513.84;5049408;28;20305;-71
2022/11/23 10:09:04;;;;;;;26.23;21.57;;;;;;;8.54;100.00;91514.44;5051825;28;20216;-70
2022/11/23 10:11:58;;;;;;;28.43;22.33;;;;;;;8.76;100.00;91504.09;5049734;28;20293;-71
2022/11/23 10:14:46;;;;;;;23.03;20.30;;;;;;;8.89;100.00;91505.84;5049640;28;20188;-71
2022/11/23 10:17:44;;;;;;;21.50;19.30;;;;;;;9.06;100.00;91507.81;5040047;28;20222;-71
2022/11/23 10:20:37;;;;;;;20.03;17.37;;;;;;;9.43;100.00;91500.38;5049742;28;20213;-71
2022/11/23 10:23:12;;;;;;;18.77;16.97;;;;;;;9.41;100.00;91506.97;5044050;28;20186;-71
2022/11/23 10:25:46;;;;;;;20.53;16.70;;;;;;;9.76;100.00;91488.63;5049890;28;20289;-71
2022/11/23 10:28:14;;;;;;;17.97;16.20;;;;;;;9.71;100.00;91506.97;5032750;28;20285;-71
2022/11/23 10:30:40;;;;;;;18.17;16.10;;;;;;;9.71;100.00;91501.03;5062154;28;20229;-71
2022/11/23 10:33:35;;;;;;;19.07;17.17;;;;;;;9.50;100.00;91505.19;5049145;28;20182;-71
2022/11/23 10:36:01;;;;;;;19.63;17.73;;;;;;;9.52;100.00;91496.03;5044793;28;20237;-71
2022/11/23 10:38:27;;;;;;;18.50;16.70;;;;;;;9.55;100.00;91492.81;5051719;28;20220;-71
2022/11/23 10:40:52;;;;;;;19.37;17.60;;;;;;;9.51;100.00;91491.09;5049392;28;20222;-71
2022/11/23 10:43:23;;;;;;;18.97;17.07;;;;;;;9.72;100.00;91497.34;5049550;28;20213;-71
2022/11/23 10:45:49;;;;;;;18.47;16.50;;;;;;;9.94;100.00;91505.09;5051647;28;20279;-71
2022/11/23 10:48:34;;;;;;;19.67;16.77;;;;;;;9.98;100.00;91500.81;5050763;28;20194;-71
2022/11/23 10:51:28;;;;;;;19.53;17.57;;;;;;;10.30;100.00;91487.47;5048405;28;20225;-70
2022/11/23 10:53:58;;;;;;;19.57;17.47;;;;;;;10.33;100.00;91496.50;5049981;28;20253;-71
2022/11/23 10:56:24;;;;;;;20.30;18.13;;;;;;;10.41;100.00;91480.84;5049053;28;20245;-71
2022/11/23 10:58:49;;;;;;;20.10;18.17;;;;;;;10.12;100.00;91496.28;5050077;28;20253;-71
2022/11/23 11:01:21;;;;;;;23.23;19.77;;;;;;;9.62;100.00;91492.38;5048928;28;20247;-71
2022/11/23 11:03:47;;;;;;;23.97;20.57;;;;;;;9.77;100.00;91492.75;5050763;28;20200;-71
2022/11/23 11:06:24;;;;;;;21.77;19.47;;;;;;;9.70;100.00;91510.66;5060967;28;20230;-71
2022/11/23 11:09:18;;;;;;;20.23;18.13;;;;;;;10.06;100.00;91501.91;5051897;28;20197;-71
2022/11/23 11:11:50;;;;;;;18.83;16.90;;;;;;;10.48;96.97;91493.47;5031848;28;20222;-71
2022/11/23 11:14:19;;;;;;;27.83;18.40;;;;;;;10.38;100.00;91491.16;5054084;28;20228;-71
2022/11/23 11:16:50;;;;;;;20.00;17.87;;;;;;;10.30;100.00;91500.50;5053615;28;20230;-71
2022/11/23 11:19:33;;;;;;;19.53;17.67;;;;;;;10.41;100.00;91488.69;5053489;28;20220;-71